Time;durP1;ratioP1;P1;durP2;ratioP2;P2;SDS_P1;SDS_P2;PMS_P1;PMS_P2;Temp;Humidity;BMP_temperature;BMP_pressure;BME280_temperature;BME280_humidity;BME280_pressure;Samples;Min_cycle;Max_cycle;Signal;HPM_P1;HPM_P2
2020/12/29 00:02:58;;;;;;;6.30;3.08;;;1.70;99.90;;;;;;6740520;77;20172;-76
2020/12/29 00:13:00;;;;;;;7.75;3.12;;;2.00;99.90;;;;;;6733587;88;20304;-76
2020/12/29 00:23:00;;;;;;;5.32;2.47;;;2.30;99.90;;;;;;6734080;88;20228;-75
2020/12/29 00:33:01;;;;;;;4.20;2.00;;;2.40;99.90;;;;;;6729558;88;20199;-76
2020/12/29 00:43:01;;;;;;;6.03;2.22;;;2.30;99.90;;;;;;6731810;88;20345;-76
2020/12/29 00:53:02;;;;;;;7.95;3.17;;;2.50;99.90;;;;;;6730929;88;20364;-75
2020/12/29 01:03:03;;;;;;;7.12;3.60;;;2.40;99.90;;;;;;6725030;88;20182;-76
2020/12/29 01:13:04;;;;;;;5.75;3.00;;;2.40;99.90;;;;;;6717618;88;20250;-75
2020/12/29 01:23:05;;;;;;;5.15;2.60;;;2.50;99.90;;;;;;6719076;88;20268;-75
2020/12/29 01:33:07;;;;;;;6.35;2.55;;;2.70;99.90;;;;;;6723636;88;20194;-73
2020/12/29 01:43:07;;;;;;;4.72;2.30;;;2.60;99.90;;;;;;6722322;88;20275;-73
2020/12/29 01:53:08;;;;;;;6.03;2.00;;;2.70;99.90;;;;;;6721267;88;20194;-76
2020/12/29 02:03:10;;;;;;;5.80;1.90;;;2.80;99.90;;;;;;6723340;88;20200;-75
2020/12/29 02:13:11;;;;;;;6.07;1.87;;;2.80;99.90;;;;;;6735690;88;20169;-74
2020/12/29 02:23:11;;;;;;;5.75;2.00;;;2.80;99.90;;;;;;6735498;88;20234;-74
2020/12/29 02:33:12;;;;;;;6.68;2.50;;;2.50;99.90;;;;;;6730131;88;20194;-75
2020/12/29 02:43:12;;;;;;;6.20;2.20;;;2.50;99.90;;;;;;6733810;88;20206;-73
2020/12/29 02:53:13;;;;;;;5.87;2.20;;;2.60;99.90;;;;;;6735070;88;20531;-73
2020/12/29 03:03:14;;;;;;;4.28;2.22;;;2.60;99.90;;;;;;6737940;88;20334;-74
2020/12/29 03:13:14;;;;;;;4.65;1.87;;;2.60;99.90;;;;;;6734143;88;20225;-74
2020/12/29 03:23:15;;;;;;;3.30;1.92;;;2.70;99.90;;;;;;6734807;88;20212;-73
2020/12/29 03:33:16;;;;;;;3.83;1.50;;;2.60;99.90;;;;;;6739436;88;20331;-74
2020/12/29 03:43:16;;;;;;;3.78;1.60;;;2.70;99.90;;;;;;6738426;88;20222;-74
2020/12/29 03:53:17;;;;;;;3.47;1.95;;;2.90;99.90;;;;;;6737764;88;20188;-74
2020/12/29 04:03:17;;;;;;;4.43;2.00;;;2.90;99.90;;;;;;6741475;88;20189;-74
2020/12/29 04:13:18;;;;;;;3.10;1.85;;;2.90;99.90;;;;;;6742067;88;20222;-76
2020/12/29 04:23:19;;;;;;;3.87;1.85;;;3.10;99.90;;;;;;6741564;88;20202;-74
2020/12/29 04:33:19;;;;;;;3.58;1.83;;;3.20;99.90;;;;;;6735999;88;20295;-73
2020/12/29 04:43:20;;;;;;;5.40;1.92;;;3.40;99.90;;;;;;6738815;88;20252;-75
2020/12/29 04:53:23;;;;;;;2.80;1.60;;;3.30;99.90;;;;;;6735457;88;20185;-74
2020/12/29 05:03:27;;;;;;;4.68;2.00;;;3.30;99.90;;;;;;6733958;88;20186;-76
2020/12/29 05:13:28;;;;;;;5.43;2.40;;;3.10;99.90;;;;;;6736631;88;20181;-76
2020/12/29 05:23:29;;;;;;;5.07;2.53;;;3.10;99.90;;;;;;6734126;88;20191;-75
2020/12/29 05:33:30;;;;;;;3.85;2.33;;;3.00;99.90;;;;;;6731838;88;20196;-76
2020/12/29 05:43:32;;;;;;;5.12;3.05;;;2.80;99.90;;;;;;6733749;88;20315;-75
2020/12/29 05:53:33;;;;;;;8.55;3.33;;;2.80;99.90;;;;;;6734342;88;20705;-75
2020/12/29 06:03:35;;;;;;;6.43;3.30;;;2.70;99.90;;;;;;6737100;88;20213;-75
2020/12/29 06:13:45;;;;;;;6.03;3.17;;;2.80;99.90;;;;;;6735773;88;20229;-75
2020/12/29 06:23:48;;;;;;;6.43;2.97;;;2.80;99.90;;;;;;6736700;88;20197;-74
2020/12/29 06:33:54;;;;;;;7.00;3.00;;;2.70;99.90;;;;;;6737925;88;20188;-74
2020/12/29 06:43:54;;;;;;;5.00;3.03;;;2.50;99.90;;;;;;6734278;88;20660;-74
2020/12/29 06:53:55;;;;;;;7.43;3.15;;;2.60;99.90;;;;;;6740748;88;20190;-74
2020/12/29 07:04:00;;;;;;;4.82;2.53;;;2.60;99.90;;;;;;6732579;88;20307;-74
2020/12/29 07:14:05;;;;;;;3.85;2.10;;;2.60;99.90;;;;;;6738627;88;20172;-74
2020/12/29 07:24:07;;;;;;;6.05;2.08;;;2.90;99.90;;;;;;6737729;88;20326;-74
2020/12/29 07:34:14;;;;;;;2.35;1.45;;;2.80;99.90;;;;;;6734054;88;20590;-74
2020/12/29 07:44:14;;;;;;;4.82;1.40;;;3.10;99.90;;;;;;6734204;88;20661;-73
2020/12/29 07:54:18;;;;;;;2.90;1.70;;;3.30;99.90;;;;;;6732414;88;20201;-74
2020/12/29 08:04:29;;;;;;;3.80;1.67;;;3.50;99.90;;;;;;6735927;88;20178;-74
2020/12/29 08:14:30;;;;;;;5.60;1.80;;;3.60;99.90;;;;;;6736561;88;20206;-74
2020/12/29 08:24:31;;;;;;;3.35;1.50;;;3.40;99.90;;;;;;6734149;88;20186;-75
2020/12/29 08:34:33;;;;;;;3.53;1.70;;;3.60;99.90;;;;;;6731054;88;20311;-75
2020/12/29 08:44:41;;;;;;;4.18;1.40;;;4.00;99.90;;;;;;6726635;88;20628;-74
2020/12/29 08:54:42;;;;;;;7.72;1.42;;;4.20;99.90;;;;;;6728682;88;20298;-75
2020/12/29 09:04:43;;;;;;;3.67;1.50;;;4.10;99.90;;;;;;6731695;88;20214;-75
2020/12/29 09:14:55;;;;;;;3.47;1.60;;;4.20;99.90;;;;;;6729120;88;20263;-75
2020/12/29 09:24:55;;;;;;;2.92;1.30;;;4.20;99.90;;;;;;6736677;88;20309;-75
2020/12/29 09:35:24;;;;;;;3.70;1.20;;;4.50;99.90;;;;;;6731918;88;20225;-74
2020/12/29 09:45:22;;;;;;;2.97;1.37;;;4.60;99.90;;;;;;6741438;88;20195;-74
2020/12/29 09:55:22;;;;;;;2.27;1.10;;;4.90;99.90;;;;;;6735412;88;20181;-73
2020/12/29 10:05:23;;;;;;;4.80;1.40;;;5.30;99.90;;;;;;6731524;88;20275;-75
2020/12/29 10:15:24;;;;;;;4.32;1.20;;;5.30;99.90;;;;;;6739136;88;21143;-75
2020/12/29 10:25:24;;;;;;;2.65;1.12;;;5.20;99.90;;;;;;6732633;88;20681;-75
2020/12/29 10:35:25;;;;;;;4.47;1.20;;;4.90;99.90;;;;;;6736721;88;20200;-74
2020/12/29 10:45:25;;;;;;;3.33;1.40;;;4.90;99.90;;;;;;6730648;88;20214;-75
2020/12/29 10:55:26;;;;;;;5.03;1.20;;;4.90;99.90;;;;;;6735926;88;20321;-75
2020/12/29 11:05:26;;;;;;;4.25;1.20;;;4.90;99.90;;;;;;6735047;88;20510;-75
2020/12/29 11:15:27;;;;;;;3.60;1.48;;;5.20;99.90;;;;;;6734861;88;20185;-74
2020/12/29 11:25:28;;;;;;;3.28;1.55;;;5.10;99.90;;;;;;6735892;88;20215;-74
2020/12/29 11:35:29;;;;;;;3.10;2.10;;;5.40;99.90;;;;;;6730003;88;20236;-74
2020/12/29 11:45:29;;;;;;;3.55;1.73;;;5.50;99.90;;;;;;6731967;88;20270;-74
2020/12/29 11:55:30;;;;;;;3.65;1.58;;;5.70;99.90;;;;;;6736180;88;20185;-74
2020/12/29 12:05:30;;;;;;;3.95;1.85;;;6.10;99.90;;;;;;6724507;88;20201;-74
2020/12/29 12:15:31;;;;;;;4.00;1.50;;;6.90;99.90;;;;;;6727606;88;20197;-74
2020/12/29 12:25:31;;;;;;;3.50;1.65;;;6.50;99.90;;;;;;6727605;88;20198;-74
2020/12/29 12:35:32;;;;;;;3.47;1.50;;;5.90;99.90;;;;;;6730299;88;20219;-74
2020/12/29 12:45:32;;;;;;;5.93;1.60;;;6.10;99.90;;;;;;6729456;88;20294;-74
2020/12/29 12:55:34;;;;;;;6.85;1.58;;;6.50;99.90;;;;;;6729722;88;20197;-74
2020/12/29 13:05:34;;;;;;;3.47;1.60;;;9.00;99.90;;;;;;6728893;88;20193;-75
2020/12/29 13:15:35;;;;;;;4.50;1.55;;;10.30;99.90;;;;;;6737669;88;20940;-76
2020/12/29 13:25:36;;;;;;;2.50;1.30;;;10.20;98.40;;;;;;6734100;88;20236;-75
2020/12/29 13:35:38;;;;;;;3.73;1.40;;;10.60;97.00;;;;;;6736048;88;20503;-76
2020/12/29 13:45:39;;;;;;;4.43;1.10;;;10.40;96.10;;;;;;6733850;88;20502;-76
2020/12/29 13:55:42;;;;;;;3.37;1.20;;;9.30;97.60;;;;;;6738938;88;20611;-75
2020/12/29 14:05:43;;;;;;;4.10;1.55;;;7.60;99.90;;;;;;6735265;88;20620;-74
2020/12/29 14:15:45;;;;;;;3.75;1.62;;;6.70;99.90;;;;;;6740667;88;20174;-75
2020/12/29 14:25:45;;;;;;;3.05;1.50;;;6.40;99.90;;;;;;6738084;88;20209;-74
2020/12/29 14:35:46;;;;;;;5.40;2.00;;;6.10;99.90;;;;;;6735367;88;20316;-74
2020/12/29 14:45:46;;;;;;;3.22;1.60;;;5.80;99.90;;;;;;6745117;88;20245;-75
2020/12/29 14:55:47;;;;;;;4.80;1.85;;;5.80;99.90;;;;;;6740006;88;20248;-74
2020/12/29 15:05:47;;;;;;;3.92;1.60;;;5.70;99.90;;;;;;6742134;88;20188;-73
2020/12/29 15:15:48;;;;;;;4.10;1.60;;;5.40;99.90;;;;;;6737053;88;20267;-74
2020/12/29 15:25:48;;;;;;;6.10;2.12;;;5.20;99.90;;;;;;6738049;88;20737;-75
2020/12/29 15:35:49;;;;;;;4.47;2.00;;;5.00;99.90;;;;;;6744313;88;20153;-77
2020/12/29 15:45:49;;;;;;;4.47;1.92;;;5.10;99.90;;;;;;6741747;88;20209;-76
2020/12/29 15:55:50;;;;;;;6.03;2.10;;;5.00;99.90;;;;;;6746069;88;20157;-77
2020/12/29 16:05:50;;;;;;;5.70;2.03;;;4.90;99.90;;;;;;6751206;88;20188;-80
2020/12/29 16:15:51;;;;;;;7.55;2.20;;;4.90;99.90;;;;;;6737033;88;20328;-78
2020/12/29 16:25:51;;;;;;;6.43;2.90;;;5.00;99.90;;;;;;6742999;88;20197;-77
2020/12/29 16:35:52;;;;;;;6.12;2.30;;;4.90;99.90;;;;;;6738551;88;20214;-78
2020/12/29 16:45:52;;;;;;;4.95;2.12;;;4.70;99.90;;;;;;6738132;88;20187;-77
2020/12/29 16:55:53;;;;;;;5.70;1.55;;;4.70;99.90;;;;;;6735491;88;20620;-77
2020/12/29 17:05:53;;;;;;;4.78;1.90;;;4.70;99.90;;;;;;6719005;88;20193;-76
2020/12/29 17:15:54;;;;;;;4.25;2.22;;;4.80;99.90;;;;;;6728565;88;20302;-78
2020/12/29 17:25:55;;;;;;;3.05;1.67;;;4.80;99.90;;;;;;6743182;88;20246;-77
2020/12/29 17:35:56;;;;;;;3.30;1.30;;;4.70;99.90;;;;;;6738426;88;20696;-76
2020/12/29 17:45:57;;;;;;;2.45;1.30;;;4.50;99.90;;;;;;6742973;88;20199;-77
2020/12/29 17:55:58;;;;;;;2.42;1.35;;;4.50;99.90;;;;;;6740446;88;20193;-77
2020/12/29 18:05:58;;;;;;;4.45;1.62;;;4.50;99.90;;;;;;6745356;88;20338;-76
2020/12/29 18:16:00;;;;;;;3.28;1.55;;;4.50;99.90;;;;;;6739267;88;20488;-76
2020/12/29 18:26:01;;;;;;;3.67;1.50;;;4.50;99.90;;;;;;6743837;88;20622;-76
2020/12/29 18:36:02;;;;;;;3.30;1.60;;;4.50;99.90;;;;;;6746789;88;20192;-80
2020/12/29 18:46:03;;;;;;;4.15;1.80;;;4.40;99.90;;;;;;6751679;88;20522;-77
2020/12/29 18:56:03;;;;;;;3.00;1.50;;;4.30;99.90;;;;;;6746554;88;20199;-79
2020/12/29 19:06:04;;;;;;;5.43;2.00;;;4.20;99.90;;;;;;6751084;88;20266;-77
2020/12/29 19:16:05;;;;;;;5.40;1.85;;;4.20;99.90;;;;;;6750205;88;20494;-76
2020/12/29 19:26:05;;;;;;;4.83;2.30;;;3.90;99.90;;;;;;6739314;88;20218;-77
2020/12/29 19:36:08;;;;;;;4.00;2.22;;;3.80;99.90;;;;;;6737601;88;20519;-77
2020/12/29 19:46:09;;;;;;;3.37;1.83;;;3.60;99.90;;;;;;6738374;88;20628;-77
2020/12/29 19:56:10;;;;;;;6.57;2.35;;;3.60;99.90;;;;;;6739319;88;20196;-78
2020/12/29 20:06:10;;;;;;;4.45;2.45;;;3.60;99.90;;;;;;6750848;88;20214;-77
2020/12/29 20:16:11;;;;;;;4.45;2.20;;;3.80;99.90;;;;;;6740467;88;20231;-78
2020/12/29 20:26:13;;;;;;;3.78;2.17;;;3.80;99.90;;;;;;6751029;88;20223;-78
2020/12/29 20:36:13;;;;;;;4.93;2.33;;;3.80;99.90;;;;;;6737000;88;20647;-77
2020/12/29 20:46:14;;;;;;;3.90;2.17;;;3.90;99.90;;;;;;6733911;88;20178;-76
2020/12/29 20:56:15;;;;;;;5.25;2.30;;;4.00;99.90;;;;;;6734836;88;20672;-77
2020/12/29 21:06:16;;;;;;;8.02;2.70;;;4.10;99.90;;;;;;6738090;88;20226;-77
2020/12/29 21:16:22;;;;;;;5.95;3.00;;;3.80;99.90;;;;;;6738646;88;20634;-77
2020/12/29 21:26:24;;;;;;;5.43;3.20;;;3.80;99.90;;;;;;6737315;88;20181;-76
2020/12/29 21:36:26;;;;;;;6.55;2.50;;;3.70;99.90;;;;;;6744441;88;20188;-76
2020/12/29 21:46:27;;;;;;;3.37;1.83;;;3.90;99.90;;;;;;6741407;88;20641;-77
2020/12/29 21:56:27;;;;;;;4.30;2.40;;;4.20;99.90;;;;;;6741041;88;20220;-78
2020/12/29 22:06:28;;;;;;;4.85;2.42;;;4.10;99.90;;;;;;6741085;88;20307;-77
2020/12/29 22:16:29;;;;;;;6.47;3.40;;;4.00;99.90;;;;;;6738269;88;20728;-75
2020/12/29 22:26:29;;;;;;;7.82;3.80;;;3.90;99.90;;;;;;6739191;88;20314;-77
2020/12/29 22:36:32;;;;;;;9.07;3.85;;;3.70;99.90;;;;;;6738957;88;20211;-77
2020/12/29 22:46:32;;;;;;;8.77;3.92;;;3.60;99.90;;;;;;6728655;88;20231;-76
2020/12/29 22:56:33;;;;;;;6.55;3.72;;;3.60;99.90;;;;;;6731373;88;20198;-77
2020/12/29 23:06:44;;;;;;;7.10;4.00;;;3.50;99.90;;;;;;6738216;88;20220;-77
2020/12/29 23:16:45;;;;;;;9.13;4.07;;;3.60;99.90;;;;;;6738913;88;20215;-76
2020/12/29 23:26:45;;;;;;;8.80;4.07;;;3.70;99.90;;;;;;6740933;88;20192;-75
2020/12/29 23:36:46;;;;;;;8.82;3.85;;;3.80;99.90;;;;;;6739989;88;20284;-76
2020/12/29 23:46:50;;;;;;;7.65;3.87;;;3.80;99.90;;;;;;6739223;88;20180;-77
2020/12/29 23:56:51;;;;;;;6.70;3.55;;;3.70;99.90;;;;;;6735936;88;20195;-77
